首页
METAR-TAF:

METAR-TAF

机场 :

連科蘭國際機場

連科蘭, 阿塞拜疆

纬度: 38-44-47N, 经度: 048-49-04E, 海拔: 9米

当前天气观测

该预报发布于1小时和0分钟前的14:00 UTC
风速12节,风向东南
温度 17°C
湿度 63%
气压 1017 hPa
能见度10公里或以上
散云层高于10000英尺

METAR: UBBL 151400Z 14012KT 9999 SCT100 17/10 Q1017 R33/CLRD// NOSIG RMK MT OP

时间: 19:00 (15:00 UTC)

预报

该预报发布于3小时和45分钟前的11:15 UTC
预报有效从15日的 12点(UTC)到 16日的 12点(UTC)
风速14节,风向东南
能见度10公里或以上
散云层高于10000英尺
短暂存在
从 15日的 12点(UTC)到 15日的 20点(UTC)
少量云层高于5000英尺, 积雨云.
成为
从 15日的 20点(UTC)到 15日的 22点(UTC)
风速4节,风向多变
短暂存在
从 16日的 00点(UTC)到 16日的 04点(UTC)
能見度: 3000
散云层高于1000英尺
轻雾
成为
从 16日的 06点(UTC)到 16日的 08点(UTC)
风速10节,风向东转东南

TAF: UBBL 151115Z 1512/1612 14014KT 9999 SCT100 TX19/1512Z TN09/1602Z TEMPO 1512/1520 FEW050CB BECMG 1520/1522 VRB04KT TEMPO 1600/1604 3000 BR SCT010 BECMG 1606/1608 12010KT

超过4000个机场的气象观测和天气预报(METAR&TAF报告)。

可查询的气象台以黄色和红色小点在地图上表示。

将鼠标移到小点上方,可查看气象台名称。

然后点击查看天气观测和预报。

如需切换地图:点击带黑十字的绿色按钮放大地图;点击带横线的绿色按钮缩小地图;或者点击绿色箭头查看邻近地区的地图。


METAR-TAF: